Terminal Aerodrome Forecast
Issued by NWS Blacksburg, VA

Current Version | Previous Version | Text Only | Print | Product List | Glossary Off
Versions: 1 2 3 4 5 6 7 8 9 10 11 12 13 14 15 16 17 18 19 20 21 22 23 24 25 26 27 28 29 30 31 32

000
FTUS41 KRNK 232322
TAFBLF
TAF
KBLF 232322Z 2400/2424 00000KT P6SM -RA SCT015 OVC050 WS020/20040KT
      TEMPO 2402/2406 2SM RA BR BKN006 OVC012
     FM241200 16010G20KT 4SM -RA BR OVC004
     FM242000 19011KT 5SM -SHRA BR OVC007=

USA.gov is the U.S. government's official web portal to all federal, state and local government web resources and services.